sensor_id;sensor_type;location;lat;lon;timestamp;temperature;humidity
8527;DHT22;4301;48.362;8.478;2023-02-28T00:01:11;-2.80;1.00
8527;DHT22;4301;48.362;8.478;2023-02-28T00:03:39;-2.80;1.00
8527;DHT22;4301;48.362;8.478;2023-02-28T00:06:07;-2.80;1.00
8527;DHT22;4301;48.362;8.478;2023-02-28T00:08:35;-2.80;1.00
8527;DHT22;4301;48.362;8.478;2023-02-28T00:11:03;-2.80;1.00
8527;DHT22;4301;48.362;8.478;2023-02-28T00:13:30;-2.80;1.00
8527;DHT22;4301;48.362;8.478;2023-02-28T00:16:03;-2.80;1.00
8527;DHT22;4301;48.362;8.478;2023-02-28T00:18:30;-2.80;1.00
8527;DHT22;4301;48.362;8.478;2023-02-28T00:20:57;-2.80;1.90
8527;DHT22;4301;48.362;8.478;2023-02-28T00:23:25;-2.80;1.00
8527;DHT22;4301;48.362;8.478;2023-02-28T00:25:52;-2.80;28.40
8527;DHT22;4301;48.362;8.478;2023-02-28T00:28:19;-2.80;9.30
8527;DHT22;4301;48.362;8.478;2023-02-28T00:30:47;-2.80;64.20
8527;DHT22;4301;48.362;8.478;2023-02-28T00:33:15;-2.80;97.10
8527;DHT22;4301;48.362;8.478;2023-02-28T00:35:43;-2.80;93.30
8527;DHT22;4301;48.362;8.478;2023-02-28T00:38:11;-2.80;99.90
8527;DHT22;4301;48.362;8.478;2023-02-28T00:40:38;-2.80;99.90
8527;DHT22;4301;48.362;8.478;2023-02-28T00:43:05;-2.80;99.90
8527;DHT22;4301;48.362;8.478;2023-02-28T00:45:32;-2.70;99.90
8527;DHT22;4301;48.362;8.478;2023-02-28T00:47:59;-2.70;99.90
8527;DHT22;4301;48.362;8.478;2023-02-28T00:50:27;-2.80;99.90
8527;DHT22;4301;48.362;8.478;2023-02-28T00:52:55;-2.80;99.90
8527;DHT22;4301;48.362;8.478;2023-02-28T00:55:22;-2.80;99.90
8527;DHT22;4301;48.362;8.478;2023-02-28T00:57:49;-2.70;99.90
8527;DHT22;4301;48.362;8.478;2023-02-28T01:00:17;-2.80;99.90
8527;DHT22;4301;48.362;8.478;2023-02-28T01:02:44;-2.80;99.90
8527;DHT22;4301;48.362;8.478;2023-02-28T01:05:11;-2.80;99.90
8527;DHT22;4301;48.362;8.478;2023-02-28T01:07:39;-2.80;99.90
8527;DHT22;4301;48.362;8.478;2023-02-28T01:10:07;-2.70;99.90
8527;DHT22;4301;48.362;8.478;2023-02-28T01:12:34;-2.80;99.90
8527;DHT22;4301;48.362;8.478;2023-02-28T01:15:02;-2.70;99.90
8527;DHT22;4301;48.362;8.478;2023-02-28T01:17:29;-2.70;99.90
8527;DHT22;4301;48.362;8.478;2023-02-28T01:19:56;-2.70;99.90
8527;DHT22;4301;48.362;8.478;2023-02-28T01:22:23;-2.70;99.90
8527;DHT22;4301;48.362;8.478;2023-02-28T01:24:51;-2.70;99.90
8527;DHT22;4301;48.362;8.478;2023-02-28T01:27:18;-2.70;99.90
8527;DHT22;4301;48.362;8.478;2023-02-28T01:29:45;-2.80;1.00
8527;DHT22;4301;48.362;8.478;2023-02-28T01:32:12;-2.80;1.00
8527;DHT22;4301;48.362;8.478;2023-02-28T01:34:39;-2.80;1.00
8527;DHT22;4301;48.362;8.478;2023-02-28T01:37:06;-2.80;1.00
8527;DHT22;4301;48.362;8.478;2023-02-28T01:39:33;-2.80;1.00
8527;DHT22;4301;48.362;8.478;2023-02-28T01:42:01;-2.80;1.00
8527;DHT22;4301;48.362;8.478;2023-02-28T01:44:55;-2.90;1.00
8527;DHT22;4301;48.362;8.478;2023-02-28T01:47:24;-2.90;1.00
8527;DHT22;4301;48.362;8.478;2023-02-28T01:49:52;-2.80;1.00
8527;DHT22;4301;48.362;8.478;2023-02-28T01:52:20;-2.90;1.00
8527;DHT22;4301;48.362;8.478;2023-02-28T01:54:51;-2.90;1.00
8527;DHT22;4301;48.362;8.478;2023-02-28T01:57:23;-2.90;1.00
8527;DHT22;4301;48.362;8.478;2023-02-28T01:59:53;-2.80;1.00
8527;DHT22;4301;48.362;8.478;2023-02-28T02:02:21;-2.90;1.00
8527;DHT22;4301;48.362;8.478;2023-02-28T02:04:53;-2.90;1.00
8527;DHT22;4301;48.362;8.478;2023-02-28T02:07:21;-2.90;1.00
8527;DHT22;4301;48.362;8.478;2023-02-28T02:09:50;-3.00;1.00
8527;DHT22;4301;48.362;8.478;2023-02-28T02:12:26;-3.00;20.30
8527;DHT22;4301;48.362;8.478;2023-02-28T02:15:04;-3.00;1.00
8527;DHT22;4301;48.362;8.478;2023-02-28T02:17:38;-3.00;1.00
8527;DHT22;4301;48.362;8.478;2023-02-28T02:23:38;-3.10;99.90
8527;DHT22;4301;48.362;8.478;2023-02-28T02:26:33;-3.10;99.90
8527;DHT22;4301;48.362;8.478;2023-02-28T02:29:37;-3.10;99.90
8527;DHT22;4301;48.362;8.478;2023-02-28T02:32:19;-3.10;99.90
8527;DHT22;4301;48.362;8.478;2023-02-28T02:35:00;-3.20;99.90
8527;DHT22;4301;48.362;8.478;2023-02-28T02:37:38;-3.10;99.90
8527;DHT22;4301;48.362;8.478;2023-02-28T02:40:11;-3.10;99.90
8527;DHT22;4301;48.362;8.478;2023-02-28T02:42:47;-3.10;99.90
8527;DHT22;4301;48.362;8.478;2023-02-28T02:45:18;-3.20;99.90
8527;DHT22;4301;48.362;8.478;2023-02-28T02:47:48;-3.20;99.90
8527;DHT22;4301;48.362;8.478;2023-02-28T02:50:22;-3.30;99.90
8527;DHT22;4301;48.362;8.478;2023-02-28T02:52:53;-3.20;1.00
8527;DHT22;4301;48.362;8.478;2023-02-28T02:55:22;-3.20;1.00
8527;DHT22;4301;48.362;8.478;2023-02-28T02:57:52;-3.20;1.00
8527;DHT22;4301;48.362;8.478;2023-02-28T03:00:26;-3.20;1.00
8527;DHT22;4301;48.362;8.478;2023-02-28T03:02:54;-3.20;1.00
8527;DHT22;4301;48.362;8.478;2023-02-28T03:05:26;-3.30;1.00
8527;DHT22;4301;48.362;8.478;2023-02-28T03:07:55;-3.30;99.90
8527;DHT22;4301;48.362;8.478;2023-02-28T03:10:31;-3.30;99.90
8527;DHT22;4301;48.362;8.478;2023-02-28T03:13:08;-3.20;99.90
8527;DHT22;4301;48.362;8.478;2023-02-28T03:15:47;-3.20;99.90
8527;DHT22;4301;48.362;8.478;2023-02-28T03:18:24;-3.20;99.90
8527;DHT22;4301;48.362;8.478;2023-02-28T03:21:01;-3.20;1.00
8527;DHT22;4301;48.362;8.478;2023-02-28T03:23:38;-3.30;1.00
8527;DHT22;4301;48.362;8.478;2023-02-28T03:26:12;-3.30;1.00
8527;DHT22;4301;48.362;8.478;2023-02-28T03:28:43;-3.40;1.00
8527;DHT22;4301;48.362;8.478;2023-02-28T03:31:18;-3.30;99.90
8527;DHT22;4301;48.362;8.478;2023-02-28T03:33:51;-3.30;99.90
8527;DHT22;4301;48.362;8.478;2023-02-28T03:36:25;-3.40;99.90
8527;DHT22;4301;48.362;8.478;2023-02-28T03:38:57;-3.40;99.90
8527;DHT22;4301;48.362;8.478;2023-02-28T03:41:32;-3.40;99.90
8527;DHT22;4301;48.362;8.478;2023-02-28T03:44:04;-3.40;99.90
8527;DHT22;4301;48.362;8.478;2023-02-28T03:46:36;-3.40;99.90
8527;DHT22;4301;48.362;8.478;2023-02-28T03:49:11;-3.40;1.00
8527;DHT22;4301;48.362;8.478;2023-02-28T03:51:42;-3.40;1.00
8527;DHT22;4301;48.362;8.478;2023-02-28T03:54:13;-3.40;99.90
8527;DHT22;4301;48.362;8.478;2023-02-28T03:56:47;-3.50;1.00
8527;DHT22;4301;48.362;8.478;2023-02-28T03:59:20;-3.50;7.60
8527;DHT22;4301;48.362;8.478;2023-02-28T04:01:49;-3.60;1.00
8527;DHT22;4301;48.362;8.478;2023-02-28T04:04:18;-3.60;99.90
8527;DHT22;4301;48.362;8.478;2023-02-28T04:06:49;-3.60;1.00
8527;DHT22;4301;48.362;8.478;2023-02-28T04:09:17;-3.60;1.00
8527;DHT22;4301;48.362;8.478;2023-02-28T04:11:46;-3.60;99.90
8527;DHT22;4301;48.362;8.478;2023-02-28T04:14:14;-3.60;1.00
8527;DHT22;4301;48.362;8.478;2023-02-28T04:16:41;-3.60;1.00
8527;DHT22;4301;48.362;8.478;2023-02-28T04:19:10;-3.60;99.90
8527;DHT22;4301;48.362;8.478;2023-02-28T04:21:39;-3.60;99.90
8527;DHT22;4301;48.362;8.478;2023-02-28T04:24:09;-3.70;1.00
8527;DHT22;4301;48.362;8.478;2023-02-28T04:26:41;-3.70;1.00
8527;DHT22;4301;48.362;8.478;2023-02-28T04:29:10;-3.70;99.90
8527;DHT22;4301;48.362;8.478;2023-02-28T04:31:38;-3.70;1.00
8527;DHT22;4301;48.362;8.478;2023-02-28T04:34:05;-3.60;99.90
8527;DHT22;4301;48.362;8.478;2023-02-28T04:36:32;-3.70;1.00
8527;DHT22;4301;48.362;8.478;2023-02-28T04:38:59;-3.70;99.90
8527;DHT22;4301;48.362;8.478;2023-02-28T04:41:27;-3.70;99.90
8527;DHT22;4301;48.362;8.478;2023-02-28T04:43:54;-3.70;99.90
8527;DHT22;4301;48.362;8.478;2023-02-28T04:46:22;-3.70;99.90
8527;DHT22;4301;48.362;8.478;2023-02-28T04:48:49;-3.70;99.90
8527;DHT22;4301;48.362;8.478;2023-02-28T04:51:18;-3.70;99.90
8527;DHT22;4301;48.362;8.478;2023-02-28T04:53:46;-3.70;1.00
8527;DHT22;4301;48.362;8.478;2023-02-28T04:56:15;-3.60;1.00
8527;DHT22;4301;48.362;8.478;2023-02-28T04:58:44;-3.80;1.00
8527;DHT22;4301;48.362;8.478;2023-02-28T05:01:19;-3.70;1.00
8527;DHT22;4301;48.362;8.478;2023-02-28T05:03:47;-3.80;1.00
8527;DHT22;4301;48.362;8.478;2023-02-28T05:06:15;-3.80;1.00
8527;DHT22;4301;48.362;8.478;2023-02-28T05:08:42;-3.80;1.00
8527;DHT22;4301;48.362;8.478;2023-02-28T05:11:15;-3.80;1.00
8527;DHT22;4301;48.362;8.478;2023-02-28T05:13:44;-3.90;1.00
8527;DHT22;4301;48.362;8.478;2023-02-28T05:16:11;-3.80;1.00
8527;DHT22;4301;48.362;8.478;2023-02-28T05:18:39;-3.90;1.00
8527;DHT22;4301;48.362;8.478;2023-02-28T05:21:06;-3.90;1.00
8527;DHT22;4301;48.362;8.478;2023-02-28T05:23:41;-3.80;1.00
8527;DHT22;4301;48.362;8.478;2023-02-28T05:26:08;-3.90;1.00
8527;DHT22;4301;48.362;8.478;2023-02-28T05:28:35;-3.90;1.00
8527;DHT22;4301;48.362;8.478;2023-02-28T05:31:03;-3.90;1.00
8527;DHT22;4301;48.362;8.478;2023-02-28T05:33:30;-3.90;1.00
8527;DHT22;4301;48.362;8.478;2023-02-28T05:35:58;-3.90;1.00
8527;DHT22;4301;48.362;8.478;2023-02-28T05:38:25;-3.90;1.00
8527;DHT22;4301;48.362;8.478;2023-02-28T05:40:52;-3.90;1.00
8527;DHT22;4301;48.362;8.478;2023-02-28T05:43:19;-3.90;1.00
8527;DHT22;4301;48.362;8.478;2023-02-28T05:45:46;-3.80;1.00
8527;DHT22;4301;48.362;8.478;2023-02-28T05:48:15;-3.80;1.00
8527;DHT22;4301;48.362;8.478;2023-02-28T05:50:42;-3.90;1.00
8527;DHT22;4301;48.362;8.478;2023-02-28T05:53:11;-3.90;1.00
8527;DHT22;4301;48.362;8.478;2023-02-28T05:55:38;-3.80;1.00
8527;DHT22;4301;48.362;8.478;2023-02-28T05:58:06;-3.80;1.00
8527;DHT22;4301;48.362;8.478;2023-02-28T06:00:33;-3.80;1.00
8527;DHT22;4301;48.362;8.478;2023-02-28T06:03:00;-3.80;1.00
8527;DHT22;4301;48.362;8.478;2023-02-28T06:05:28;-3.90;4.70
8527;DHT22;4301;48.362;8.478;2023-02-28T06:07:55;-3.90;15.70
8527;DHT22;4301;48.362;8.478;2023-02-28T06:10:22;-3.80;7.40
8527;DHT22;4301;48.362;8.478;2023-02-28T06:12:49;-3.80;1.00
8527;DHT22;4301;48.362;8.478;2023-02-28T06:15:16;-3.80;1.00
8527;DHT22;4301;48.362;8.478;2023-02-28T06:17:44;-3.90;1.00
8527;DHT22;4301;48.362;8.478;2023-02-28T06:20:11;-3.90;5.20
8527;DHT22;4301;48.362;8.478;2023-02-28T06:22:40;-3.90;22.20
8527;DHT22;4301;48.362;8.478;2023-02-28T06:25:09;-3.90;9.10
8527;DHT22;4301;48.362;8.478;2023-02-28T06:27:37;-3.90;21.40
8527;DHT22;4301;48.362;8.478;2023-02-28T06:30:04;-3.80;28.50
8527;DHT22;4301;48.362;8.478;2023-02-28T06:32:31;-3.90;32.00
8527;DHT22;4301;48.362;8.478;2023-02-28T06:34:58;-3.80;24.30
8527;DHT22;4301;48.362;8.478;2023-02-28T06:37:25;-3.70;34.50
8527;DHT22;4301;48.362;8.478;2023-02-28T06:39:54;-3.80;38.20
8527;DHT22;4301;48.362;8.478;2023-02-28T06:42:22;-3.80;20.20
8527;DHT22;4301;48.362;8.478;2023-02-28T06:44:50;-3.80;16.70
8527;DHT22;4301;48.362;8.478;2023-02-28T06:47:17;-3.80;44.30
8527;DHT22;4301;48.362;8.478;2023-02-28T06:49:44;-3.80;27.00
8527;DHT22;4301;48.362;8.478;2023-02-28T06:52:11;-3.80;25.70
8527;DHT22;4301;48.362;8.478;2023-02-28T06:54:38;-3.80;35.40
8527;DHT22;4301;48.362;8.478;2023-02-28T06:57:07;-3.70;33.20
8527;DHT22;4301;48.362;8.478;2023-02-28T06:59:34;-3.70;34.90
8527;DHT22;4301;48.362;8.478;2023-02-28T07:02:02;-3.70;15.70
8527;DHT22;4301;48.362;8.478;2023-02-28T07:04:28;-3.70;16.00
8527;DHT22;4301;48.362;8.478;2023-02-28T07:06:55;-3.70;12.90
8527;DHT22;4301;48.362;8.478;2023-02-28T07:09:23;-3.60;22.30
8527;DHT22;4301;48.362;8.478;2023-02-28T07:11:49;-3.60;23.10
8527;DHT22;4301;48.362;8.478;2023-02-28T07:14:18;-3.60;5.80
8527;DHT22;4301;48.362;8.478;2023-02-28T07:16:45;-3.50;7.90
8527;DHT22;4301;48.362;8.478;2023-02-28T07:19:12;-3.50;1.00
8527;DHT22;4301;48.362;8.478;2023-02-28T07:21:38;-3.50;12.40
8527;DHT22;4301;48.362;8.478;2023-02-28T07:24:06;-3.40;14.50
8527;DHT22;4301;48.362;8.478;2023-02-28T07:26:33;-3.50;11.10
8527;DHT22;4301;48.362;8.478;2023-02-28T07:29:00;-3.50;1.00
8527;DHT22;4301;48.362;8.478;2023-02-28T07:31:29;-3.30;3.40
8527;DHT22;4301;48.362;8.478;2023-02-28T07:33:56;-3.30;1.00
8527;DHT22;4301;48.362;8.478;2023-02-28T07:36:22;-3.20;1.00
8527;DHT22;4301;48.362;8.478;2023-02-28T07:38:49;-3.20;1.00
8527;DHT22;4301;48.362;8.478;2023-02-28T07:41:17;-3.20;1.00
8527;DHT22;4301;48.362;8.478;2023-02-28T07:43:45;-3.20;1.00
8527;DHT22;4301;48.362;8.478;2023-02-28T07:46:14;-3.20;1.00
8527;DHT22;4301;48.362;8.478;2023-02-28T07:48:43;-3.20;1.00
8527;DHT22;4301;48.362;8.478;2023-02-28T07:51:10;-3.10;1.00
8527;DHT22;4301;48.362;8.478;2023-02-28T07:53:37;-3.10;1.00
8527;DHT22;4301;48.362;8.478;2023-02-28T07:56:05;-3.10;1.00
8527;DHT22;4301;48.362;8.478;2023-02-28T07:58:32;-3.10;1.00
8527;DHT22;4301;48.362;8.478;2023-02-28T08:01:05;-3.10;1.00
8527;DHT22;4301;48.362;8.478;2023-02-28T08:03:32;-3.10;1.00
8527;DHT22;4301;48.362;8.478;2023-02-28T08:06:01;-3.20;1.00
8527;DHT22;4301;48.362;8.478;2023-02-28T08:08:28;-3.10;1.00
8527;DHT22;4301;48.362;8.478;2023-02-28T08:10:58;-3.10;1.00
8527;DHT22;4301;48.362;8.478;2023-02-28T08:13:26;-3.00;1.00
8527;DHT22;4301;48.362;8.478;2023-02-28T08:15:54;-3.00;1.00
8527;DHT22;4301;48.362;8.478;2023-02-28T08:18:21;-3.00;1.00
8527;DHT22;4301;48.362;8.478;2023-02-28T08:20:48;-3.00;1.00
8527;DHT22;4301;48.362;8.478;2023-02-28T08:23:17;-2.80;1.00
8527;DHT22;4301;48.362;8.478;2023-02-28T08:25:44;-2.80;1.00
8527;DHT22;4301;48.362;8.478;2023-02-28T08:28:10;-2.80;1.00
8527;DHT22;4301;48.362;8.478;2023-02-28T08:30:37;-2.80;1.00
8527;DHT22;4301;48.362;8.478;2023-02-28T08:33:06;-2.80;1.00
8527;DHT22;4301;48.362;8.478;2023-02-28T08:35:35;-2.80;1.00
8527;DHT22;4301;48.362;8.478;2023-02-28T08:38:02;-2.80;1.00
8527;DHT22;4301;48.362;8.478;2023-02-28T08:40:30;-2.70;1.00
8527;DHT22;4301;48.362;8.478;2023-02-28T08:42:57;-2.70;1.00
8527;DHT22;4301;48.362;8.478;2023-02-28T08:45:25;-2.70;1.00
8527;DHT22;4301;48.362;8.478;2023-02-28T08:47:54;-2.70;1.00
8527;DHT22;4301;48.362;8.478;2023-02-28T08:50:21;-2.60;1.00
8527;DHT22;4301;48.362;8.478;2023-02-28T08:52:48;-2.60;1.00
8527;DHT22;4301;48.362;8.478;2023-02-28T08:55:15;-2.50;1.00
8527;DHT22;4301;48.362;8.478;2023-02-28T08:57:43;-2.50;1.00
8527;DHT22;4301;48.362;8.478;2023-02-28T09:00:11;-2.50;1.00
8527;DHT22;4301;48.362;8.478;2023-02-28T09:02:39;-2.50;1.00
8527;DHT22;4301;48.362;8.478;2023-02-28T09:05:06;-2.40;1.00
8527;DHT22;4301;48.362;8.478;2023-02-28T09:07:34;-2.40;1.00
8527;DHT22;4301;48.362;8.478;2023-02-28T09:10:01;-2.30;1.00
8527;DHT22;4301;48.362;8.478;2023-02-28T09:12:32;-2.30;1.00
8527;DHT22;4301;48.362;8.478;2023-02-28T09:15:01;-2.30;1.00
8527;DHT22;4301;48.362;8.478;2023-02-28T09:17:28;-2.30;1.00
8527;DHT22;4301;48.362;8.478;2023-02-28T09:19:55;-2.30;1.00
8527;DHT22;4301;48.362;8.478;2023-02-28T09:22:22;-2.20;99.90
8527;DHT22;4301;48.362;8.478;2023-02-28T09:24:49;-2.20;1.00
8527;DHT22;4301;48.362;8.478;2023-02-28T09:27:16;-2.20;99.90
8527;DHT22;4301;48.362;8.478;2023-02-28T09:29:43;-2.10;1.00
8527;DHT22;4301;48.362;8.478;2023-02-28T09:32:11;-2.00;99.90
8527;DHT22;4301;48.362;8.478;2023-02-28T09:34:38;-2.00;99.90
8527;DHT22;4301;48.362;8.478;2023-02-28T09:37:05;-2.00;99.90
8527;DHT22;4301;48.362;8.478;2023-02-28T09:39:32;-1.90;1.00
8527;DHT22;4301;48.362;8.478;2023-02-28T09:41:59;-1.90;99.90
8527;DHT22;4301;48.362;8.478;2023-02-28T09:44:29;-1.80;1.00
8527;DHT22;4301;48.362;8.478;2023-02-28T09:47:00;-1.80;1.00
8527;DHT22;4301;48.362;8.478;2023-02-28T09:49:35;-1.70;1.00
8527;DHT22;4301;48.362;8.478;2023-02-28T09:52:06;-1.80;99.90
8527;DHT22;4301;48.362;8.478;2023-02-28T09:54:35;-1.70;1.00
8527;DHT22;4301;48.362;8.478;2023-02-28T09:57:07;-1.70;34.10
8527;DHT22;4301;48.362;8.478;2023-02-28T09:59:59;-1.50;1.00
8527;DHT22;4301;48.362;8.478;2023-02-28T10:03:04;-1.50;99.90
8527;DHT22;4301;48.362;8.478;2023-02-28T10:05:38;-1.60;99.90
8527;DHT22;4301;48.362;8.478;2023-02-28T10:08:12;-1.60;1.00
8527;DHT22;4301;48.362;8.478;2023-02-28T10:10:42;-1.60;1.00
8527;DHT22;4301;48.362;8.478;2023-02-28T10:13:17;-1.50;1.00
8527;DHT22;4301;48.362;8.478;2023-02-28T10:15:49;-1.40;99.90
8527;DHT22;4301;48.362;8.478;2023-02-28T10:18:21;-1.30;99.90
8527;DHT22;4301;48.362;8.478;2023-02-28T10:20:51;-1.20;99.90
8527;DHT22;4301;48.362;8.478;2023-02-28T10:23:24;-1.10;99.90
8527;DHT22;4301;48.362;8.478;2023-02-28T10:25:55;-1.10;99.90
8527;DHT22;4301;48.362;8.478;2023-02-28T10:28:25;-1.00;1.00
8527;DHT22;4301;48.362;8.478;2023-02-28T10:30:54;-1.00;99.90
8527;DHT22;4301;48.362;8.478;2023-02-28T10:33:24;-1.00;1.00
8527;DHT22;4301;48.362;8.478;2023-02-28T10:35:52;-1.00;1.00
8527;DHT22;4301;48.362;8.478;2023-02-28T10:38:22;-1.10;1.00
8527;DHT22;4301;48.362;8.478;2023-02-28T10:40:49;-0.90;1.00
8527;DHT22;4301;48.362;8.478;2023-02-28T10:43:20;-1.00;1.00
8527;DHT22;4301;48.362;8.478;2023-02-28T10:45:57;-1.10;1.00
8527;DHT22;4301;48.362;8.478;2023-02-28T10:48:36;-1.00;99.90
8527;DHT22;4301;48.362;8.478;2023-02-28T10:51:07;-0.90;77.20
8527;DHT22;4301;48.362;8.478;2023-02-28T10:53:38;-0.80;99.90
8527;DHT22;4301;48.362;8.478;2023-02-28T10:56:15;-0.70;99.90
8527;DHT22;4301;48.362;8.478;2023-02-28T10:58:50;-0.80;1.00
8527;DHT22;4301;48.362;8.478;2023-02-28T11:01:19;-0.70;1.00
8527;DHT22;4301;48.362;8.478;2023-02-28T11:03:46;-0.90;1.00
8527;DHT22;4301;48.362;8.478;2023-02-28T11:06:17;-0.90;99.90
8527;DHT22;4301;48.362;8.478;2023-02-28T11:08:48;-0.80;77.30
8527;DHT22;4301;48.362;8.478;2023-02-28T11:11:16;-0.80;1.00
8527;DHT22;4301;48.362;8.478;2023-02-28T11:13:45;-0.80;99.90
8527;DHT22;4301;48.362;8.478;2023-02-28T11:16:14;-0.50;1.00
8527;DHT22;4301;48.362;8.478;2023-02-28T11:18:46;-0.60;99.90
8527;DHT22;4301;48.362;8.478;2023-02-28T11:21:22;-0.70;99.90
8527;DHT22;4301;48.362;8.478;2023-02-28T11:23:52;-0.50;1.00
8527;DHT22;4301;48.362;8.478;2023-02-28T11:26:41;-0.50;1.00
8527;DHT22;4301;48.362;8.478;2023-02-28T11:29:17;-0.50;1.00
8527;DHT22;4301;48.362;8.478;2023-02-28T11:32:02;-0.50;99.90
8527;DHT22;4301;48.362;8.478;2023-02-28T11:34:30;-0.50;99.90
8527;DHT22;4301;48.362;8.478;2023-02-28T11:36:59;-0.40;83.00
8527;DHT22;4301;48.362;8.478;2023-02-28T11:39:31;-0.40;1.00
8527;DHT22;4301;48.362;8.478;2023-02-28T11:42:23;-0.50;1.00
8527;DHT22;4301;48.362;8.478;2023-02-28T11:45:07;-0.60;1.00
8527;DHT22;4301;48.362;8.478;2023-02-28T11:47:47;-0.60;1.00
8527;DHT22;4301;48.362;8.478;2023-02-28T11:50:26;-0.50;1.00
8527;DHT22;4301;48.362;8.478;2023-02-28T11:53:01;-0.50;21.20
8527;DHT22;4301;48.362;8.478;2023-02-28T11:55:31;-0.60;99.90
8527;DHT22;4301;48.362;8.478;2023-02-28T11:58:17;-0.40;1.00
8527;DHT22;4301;48.362;8.478;2023-02-28T12:00:57;-0.30;1.00
8527;DHT22;4301;48.362;8.478;2023-02-28T12:03:31;-0.10;1.00
8527;DHT22;4301;48.362;8.478;2023-02-28T12:06:13;0.00;1.00
8527;DHT22;4301;48.362;8.478;2023-02-28T12:08:49;0.00;1.00
8527;DHT22;4301;48.362;8.478;2023-02-28T12:11:29;0.10;99.90
8527;DHT22;4301;48.362;8.478;2023-02-28T12:14:19;0.00;99.90
8527;DHT22;4301;48.362;8.478;2023-02-28T12:16:56;0.10;99.90
8527;DHT22;4301;48.362;8.478;2023-02-28T12:19:27;0.10;99.90
8527;DHT22;4301;48.362;8.478;2023-02-28T12:22:29;0.10;99.90
8527;DHT22;4301;48.362;8.478;2023-02-28T12:25:35;0.30;99.90
8527;DHT22;4301;48.362;8.478;2023-02-28T12:28:08;0.30;99.90
8527;DHT22;4301;48.362;8.478;2023-02-28T12:30:38;0.50;1.00
8527;DHT22;4301;48.362;8.478;2023-02-28T12:33:09;0.60;1.00
8527;DHT22;4301;48.362;8.478;2023-02-28T12:35:49;0.80;1.00
8527;DHT22;4301;48.362;8.478;2023-02-28T12:38:20;0.50;1.00
8527;DHT22;4301;48.362;8.478;2023-02-28T12:40:53;0.70;99.90
8527;DHT22;4301;48.362;8.478;2023-02-28T12:43:22;0.90;99.90
8527;DHT22;4301;48.362;8.478;2023-02-28T12:45:55;1.20;99.90
8527;DHT22;4301;48.362;8.478;2023-02-28T12:48:39;1.40;99.90
8527;DHT22;4301;48.362;8.478;2023-02-28T12:51:08;1.60;99.90
8527;DHT22;4301;48.362;8.478;2023-02-28T12:53:49;1.40;99.90
8527;DHT22;4301;48.362;8.478;2023-02-28T12:56:24;1.60;99.90
8527;DHT22;4301;48.362;8.478;2023-02-28T12:58:59;1.70;44.40
8527;DHT22;4301;48.362;8.478;2023-02-28T13:01:45;1.60;71.70
8527;DHT22;4301;48.362;8.478;2023-02-28T13:04:40;1.70;96.90
8527;DHT22;4301;48.362;8.478;2023-02-28T13:10:15;2.50;1.00
8527;DHT22;4301;48.362;8.478;2023-02-28T13:12:49;2.90;1.00
8527;DHT22;4301;48.362;8.478;2023-02-28T13:15:19;2.90;1.00
8527;DHT22;4301;48.362;8.478;2023-02-28T13:17:50;2.70;1.00
8527;DHT22;4301;48.362;8.478;2023-02-28T13:20:19;3.80;1.00
8527;DHT22;4301;48.362;8.478;2023-02-28T13:22:49;5.10;99.90
8527;DHT22;4301;48.362;8.478;2023-02-28T13:31:24;7.40;99.90
8527;DHT22;4301;48.362;8.478;2023-02-28T13:34:14;6.70;99.90
8527;DHT22;4301;48.362;8.478;2023-02-28T13:36:41;7.30;99.90
8527;DHT22;4301;48.362;8.478;2023-02-28T13:42:23;9.40;99.90
8527;DHT22;4301;48.362;8.478;2023-02-28T13:45:25;9.20;99.90
8527;DHT22;4301;48.362;8.478;2023-02-28T13:47:56;10.00;98.80
8527;DHT22;4301;48.362;8.478;2023-02-28T13:50:29;9.90;93.20
8527;DHT22;4301;48.362;8.478;2023-02-28T13:53:24;10.10;87.40
8527;DHT22;4301;48.362;8.478;2023-02-28T13:55:57;10.60;83.30
8527;DHT22;4301;48.362;8.478;2023-02-28T13:58:39;11.60;70.10
8527;DHT22;4301;48.362;8.478;2023-02-28T14:01:31;11.60;57.30
8527;DHT22;4301;48.362;8.478;2023-02-28T14:06:56;11.40;49.80
8527;DHT22;4301;48.362;8.478;2023-02-28T14:09:27;12.60;41.80
8527;DHT22;4301;48.362;8.478;2023-02-28T14:11:55;12.10;33.90
8527;DHT22;4301;48.362;8.478;2023-02-28T14:14:53;11.30;48.60
8527;DHT22;4301;48.362;8.478;2023-02-28T14:17:22;10.40;27.00
8527;DHT22;4301;48.362;8.478;2023-02-28T14:19:52;10.20;25.20
8527;DHT22;4301;48.362;8.478;2023-02-28T14:22:38;9.30;27.60
8527;DHT22;4301;48.362;8.478;2023-02-28T14:25:18;8.20;24.60
8527;DHT22;4301;48.362;8.478;2023-02-28T14:27:50;7.20;29.10
8527;DHT22;4301;48.362;8.478;2023-02-28T14:30:43;6.90;37.40
8527;DHT22;4301;48.362;8.478;2023-02-28T14:33:22;6.70;40.50
8527;DHT22;4301;48.362;8.478;2023-02-28T14:36:07;6.30;43.30
8527;DHT22;4301;48.362;8.478;2023-02-28T14:38:39;6.50;51.40
8527;DHT22;4301;48.362;8.478;2023-02-28T14:41:16;7.80;56.80
8527;DHT22;4301;48.362;8.478;2023-02-28T14:43:49;9.40;52.20
8527;DHT22;4301;48.362;8.478;2023-02-28T14:46:17;10.10;44.10
8527;DHT22;4301;48.362;8.478;2023-02-28T14:48:45;10.20;30.60
8527;DHT22;4301;48.362;8.478;2023-02-28T14:51:18;10.30;30.70
8527;DHT22;4301;48.362;8.478;2023-02-28T14:53:50;10.40;27.80
8527;DHT22;4301;48.362;8.478;2023-02-28T14:56:23;10.30;27.90
8527;DHT22;4301;48.362;8.478;2023-02-28T14:58:55;11.40;28.10
8527;DHT22;4301;48.362;8.478;2023-02-28T15:01:24;10.90;22.50
8527;DHT22;4301;48.362;8.478;2023-02-28T15:03:59;11.40;23.40
8527;DHT22;4301;48.362;8.478;2023-02-28T15:06:28;11.70;19.30
8527;DHT22;4301;48.362;8.478;2023-02-28T15:09:17;11.70;18.20
8527;DHT22;4301;48.362;8.478;2023-02-28T15:11:47;11.10;15.60
8527;DHT22;4301;48.362;8.478;2023-02-28T15:14:20;11.00;16.70
8527;DHT22;4301;48.362;8.478;2023-02-28T15:16:51;10.10;11.40
8527;DHT22;4301;48.362;8.478;2023-02-28T15:19:22;10.10;13.00
8527;DHT22;4301;48.362;8.478;2023-02-28T15:21:54;9.90;14.10
8527;DHT22;4301;48.362;8.478;2023-02-28T15:24:30;10.00;12.70
8527;DHT22;4301;48.362;8.478;2023-02-28T15:26:59;8.40;10.40
8527;DHT22;4301;48.362;8.478;2023-02-28T15:29:29;8.10;15.50
8527;DHT22;4301;48.362;8.478;2023-02-28T15:32:01;7.70;16.70
8527;DHT22;4301;48.362;8.478;2023-02-28T15:34:33;7.20;18.80
8527;DHT22;4301;48.362;8.478;2023-02-28T15:37:02;6.70;18.80
8527;DHT22;4301;48.362;8.478;2023-02-28T15:39:42;6.50;25.50
8527;DHT22;4301;48.362;8.478;2023-02-28T15:42:12;6.40;29.40
8527;DHT22;4301;48.362;8.478;2023-02-28T15:44:40;6.50;31.80
8527;DHT22;4301;48.362;8.478;2023-02-28T15:47:16;6.90;35.90
8527;DHT22;4301;48.362;8.478;2023-02-28T15:49:47;6.50;33.80
8527;DHT22;4301;48.362;8.478;2023-02-28T15:52:16;6.60;37.30
8527;DHT22;4301;48.362;8.478;2023-02-28T15:54:44;6.60;37.20
8527;DHT22;4301;48.362;8.478;2023-02-28T15:57:15;6.30;39.60
8527;DHT22;4301;48.362;8.478;2023-02-28T15:59:49;6.20;42.30
8527;DHT22;4301;48.362;8.478;2023-02-28T16:02:18;6.10;43.60
8527;DHT22;4301;48.362;8.478;2023-02-28T16:05:01;6.00;45.50
8527;DHT22;4301;48.362;8.478;2023-02-28T16:07:30;5.80;46.80
8527;DHT22;4301;48.362;8.478;2023-02-28T16:09:57;5.80;50.00
8527;DHT22;4301;48.362;8.478;2023-02-28T16:12:27;5.90;52.90
8527;DHT22;4301;48.362;8.478;2023-02-28T16:14:56;5.60;54.70
8527;DHT22;4301;48.362;8.478;2023-02-28T16:17:26;5.30;56.40
8527;DHT22;4301;48.362;8.478;2023-02-28T16:19:53;5.20;61.30
8527;DHT22;4301;48.362;8.478;2023-02-28T16:22:21;5.00;63.60
8527;DHT22;4301;48.362;8.478;2023-02-28T16:24:49;4.60;68.40
8527;DHT22;4301;48.362;8.478;2023-02-28T16:27:19;4.50;75.10
8527;DHT22;4301;48.362;8.478;2023-02-28T16:29:47;4.60;78.20
8527;DHT22;4301;48.362;8.478;2023-02-28T16:32:16;4.20;83.50
8527;DHT22;4301;48.362;8.478;2023-02-28T16:34:43;4.30;87.10
8527;DHT22;4301;48.362;8.478;2023-02-28T16:37:14;3.70;91.00
8527;DHT22;4301;48.362;8.478;2023-02-28T16:39:42;3.60;96.20
8527;DHT22;4301;48.362;8.478;2023-02-28T16:42:16;3.30;99.90
8527;DHT22;4301;48.362;8.478;2023-02-28T16:44:46;2.90;99.90
8527;DHT22;4301;48.362;8.478;2023-02-28T16:47:12;2.60;99.90
8527;DHT22;4301;48.362;8.478;2023-02-28T16:49:39;2.60;99.90
8527;DHT22;4301;48.362;8.478;2023-02-28T16:52:09;2.40;99.90
8527;DHT22;4301;48.362;8.478;2023-02-28T16:54:36;2.30;99.90
8527;DHT22;4301;48.362;8.478;2023-02-28T16:57:03;2.10;99.90